Sydenham, Canada
Current Conditions -  °F | °C
As of 11:00 AM on Thursday 30 Oct 2014 (Local Time) from CYVV Reporting Station
Broken Clouds Broken Clouds  
Wind Chill: 43°   Ceiling: 5000
Heat Index: 43°   Visibility: 15mi
Dew Point: 32°   Wind: 3mph
Humidity: 66%   Direction: 320°NW
Pressure: 30.07"   Gusts: NA
Location:  44.57°N, 80.8°W
Report Text: CYVV 301500Z 32003KT 15SM SCT030 BKN050 BKN250 06/00 A3007 RMKSC3SC2CI1 SLP189
Loading
Personal Weather Stations






























Interactive Weather Map
Tropical Storm Tracking
New forecast layout! Learn more

10-Day Weather Forecast

Advertisements
Track Severe Weather on mobile